Time;durP1;ratioP1;P1;durP2;ratioP2;P2;SDS_P1;SDS_P2;PMS_P1;PMS_P2;Temp;Humidity;BMP_temperature;BMP_pressure;BME280_temperature;BME280_humidity;BME280_pressure;Samples;Min_cycle;Max_cycle;Signal;HPM_P1;HPM_P2
2023/05/19 00:01:54;;;;;;;;;;;;;;;8.09;96.10;102624.94;10501331;28;20371;-66
2023/05/19 00:06:57;;;;;;;;;;;;;;;8.01;97.29;102622.44;10501718;28;19924;-67
2023/05/19 00:11:59;;;;;;;;;;;;;;;8.05;96.79;102624.09;10499570;28;19925;-66
2023/05/19 00:17:01;;;;;;;;;;;;;;;7.74;99.54;102623.78;10500656;28;19924;-66
2023/05/19 00:22:04;;;;;;;;;;;;;;;7.73;99.93;102630.75;10499905;28;19933;-67
2023/05/19 00:27:06;;;;;;;;;;;;;;;7.88;99.62;102639.19;10499948;28;19924;-67
2023/05/19 00:32:09;;;;;;;;;;;;;;;7.93;98.57;102627.78;10500715;28;19925;-66
2023/05/19 00:37:11;;;;;;;;;;;;;;;7.76;100.00;102619.38;10499006;28;20382;-66
2023/05/19 00:42:13;;;;;;;;;;;;;;;7.58;100.00;102616.19;10496954;28;19933;-66
2023/05/19 00:47:15;;;;;;;;;;;;;;;7.76;100.00;102611.56;10500091;28;19924;-67
2023/05/19 00:52:18;;;;;;;;;;;;;;;7.67;100.00;102604.75;10501894;28;19931;-66
2023/05/19 00:57:20;;;;;;;;;;;;;;;7.83;100.00;102605.34;10523327;28;19924;-67
2023/05/19 01:02:22;;;;;;;;;;;;;;;7.60;100.00;102610.97;10523012;28;20393;-67
2023/05/19 01:07:26;;;;;;;;;;;;;;;7.62;100.00;102601.38;10541423;28;19963;-67
2023/05/19 01:12:28;;;;;;;;;;;;;;;7.59;100.00;102602.25;10538925;28;19953;-66
2023/05/19 01:17:43;;;;;;;;;;;;;;;7.57;100.00;102605.78;10539481;28;19931;-67
2023/05/19 01:23:01;;;;;;;;;;;;;;;7.44;100.00;102610.31;10540989;28;19928;-66
2023/05/19 01:28:19;;;;;;;;;;;;;;;7.46;100.00;102610.31;10522250;28;20398;-66
2023/05/19 01:33:22;;;;;;;;;;;;;;;7.60;100.00;102610.97;10539001;28;19924;-66
2023/05/19 01:38:24;;;;;;;;;;;;;;;7.68;100.00;102605.59;10523299;28;20299;-67
2023/05/19 01:43:26;;;;;;;;;;;;;;;7.49;100.00;102618.94;10536583;28;19924;-66
2023/05/19 01:48:28;;;;;;;;;;;;;;;7.47;100.00;102612.03;10536396;28;19924;-67
2023/05/19 01:53:31;;;;;;;;;;;;;;;7.41;100.00;102607.75;10535432;28;19932;-66
2023/05/19 01:58:43;;;;;;;;;;;;;;;7.50;100.00;102604.16;10553204;28;19939;-67
2023/05/19 02:03:45;;;;;;;;;;;;;;;7.34;100.00;102600.94;10535344;28;19930;-67
2023/05/19 02:08:51;;;;;;;;;;;;;;;7.41;100.00;102600.81;10553309;28;20391;-67
2023/05/19 02:13:54;;;;;;;;;;;;;;;7.55;100.00;102592.78;10551799;28;20382;-67
2023/05/19 02:18:58;;;;;;;;;;;;;;;7.51;100.00;102585.88;10535969;28;19931;-67
2023/05/19 02:24:00;;;;;;;;;;;;;;;7.56;100.00;102585.81;10553786;28;19963;-67
2023/05/19 02:29:02;;;;;;;;;;;;;;;7.62;100.00;102583.13;10552205;28;19932;-67
2023/05/19 02:34:05;;;;;;;;;;;;;;;7.46;100.00;102579.88;10553597;28;19930;-67
2023/05/19 02:39:08;;;;;;;;;;;;;;;7.65;100.00;102584.78;10552842;28;20015;-67
2023/05/19 02:44:10;;;;;;;;;;;;;;;7.62;100.00;102580.50;10534154;28;19928;-67
2023/05/19 02:49:12;;;;;;;;;;;;;;;7.60;100.00;102577.06;10552991;28;19931;-67
2023/05/19 02:54:15;;;;;;;;;;;;;;;7.66;100.00;102574.34;10563884;28;19930;-67
2023/05/19 02:59:17;;;;;;;;;;;;;;;7.68;100.00;102577.78;10575359;28;19924;-67
2023/05/19 03:04:19;;;;;;;;;;;;;;;7.85;100.00;102566.22;10550544;28;19924;-67
2023/05/19 03:09:21;;;;;;;;;;;;;;;7.76;100.00;102569.84;10588077;28;19923;-67
2023/05/19 03:14:24;;;;;;;;;;;;;;;7.68;100.00;102575.16;10588034;28;19924;-67
2023/05/19 03:19:26;;;;;;;;;;;;;;;7.74;100.00;102569.88;10585838;28;20380;-67
2023/05/19 03:24:28;;;;;;;;;;;;;;;7.78;100.00;102574.16;10584277;28;20455;-67
2023/05/19 03:29:31;;;;;;;;;;;;;;;7.58;100.00;102577.09;10556562;28;19930;-67
2023/05/19 03:34:34;;;;;;;;;;;;;;;7.60;100.00;102574.47;10545146;28;19930;-67
2023/05/19 03:39:36;;;;;;;;;;;;;;;7.46;100.00;102576.44;10544910;28;19924;-67
2023/05/19 03:44:38;;;;;;;;;;;;;;;7.51;100.00;102575.44;10574502;28;19928;-67
2023/05/19 03:49:40;;;;;;;;;;;;;;;7.39;100.00;102586.94;10556816;28;20271;-67
2023/05/19 03:54:43;;;;;;;;;;;;;;;7.56;100.00;102585.81;10543749;28;20011;-67
2023/05/19 03:59:46;;;;;;;;;;;;;;;7.54;100.00;102585.84;10542681;28;19924;-67
2023/05/19 04:04:49;;;;;;;;;;;;;;;7.51;100.00;102598.91;10542113;28;20401;-67
2023/05/19 04:09:51;;;;;;;;;;;;;;;7.76;100.00;102595.91;10543641;28;19931;-67
2023/05/19 04:14:54;;;;;;;;;;;;;;;7.71;100.00;102590.78;10542765;28;20349;-67
2023/05/19 04:19:56;;;;;;;;;;;;;;;7.50;100.00;102598.94;10541659;28;20382;-67
2023/05/19 04:24:59;;;;;;;;;;;;;;;7.80;100.00;102598.44;10541812;28;19928;-67
2023/05/19 04:30:01;;;;;;;;;;;;;;;7.65;100.00;102597.84;10541766;28;19924;-67
2023/05/19 04:35:04;;;;;;;;;;;;;;;7.68;100.00;102596.03;10542666;28;19931;-67
2023/05/19 04:40:09;;;;;;;;;;;;;;;7.92;100.00;102594.78;10541812;28;20375;-67
2023/05/19 04:45:12;;;;;;;;;;;;;;;8.12;100.00;102588.31;10541161;28;19924;-67
2023/05/19 04:50:15;;;;;;;;;;;;;;;8.14;100.00;102589.19;10540989;28;19928;-67
2023/05/19 04:55:18;;;;;;;;;;;;;;;8.17;100.00;102587.38;10567463;28;19930;-67
2023/05/19 05:00:20;;;;;;;;;;;;;;;8.33;100.00;102584.47;10581179;28;19959;-67
2023/05/19 05:05:23;;;;;;;;;;;;;;;8.41;100.00;102590.38;10573269;28;19947;-67
2023/05/19 05:10:25;;;;;;;;;;;;;;;8.58;100.00;102584.88;10576405;22;19965;-67
2023/05/19 05:15:28;;;;;;;;;;;;;;;8.53;100.00;102586.72;10582217;28;20297;-67
2023/05/19 05:20:31;;;;;;;;;;;;;;;8.38;100.00;102582.63;10579465;28;19966;-67
2023/05/19 05:25:33;;;;;;;;;;;;;;;8.53;100.00;102587.56;10540979;28;19924;-67
2023/05/19 05:30:36;;;;;;;;;;;;;;;8.42;100.00;102592.09;10539538;28;19924;-67
2023/05/19 05:35:38;;;;;;;;;;;;;;;8.57;100.00;102596.19;10540152;28;19931;-67
2023/05/19 05:40:40;;;;;;;;;;;;;;;8.83;100.00;102592.19;10539658;28;19926;-67
2023/05/19 05:45:43;;;;;;;;;;;;;;;8.88;100.00;102593.81;10539931;28;19924;-67
2023/05/19 05:50:45;;;;;;;;;;;;;;;9.09;100.00;102594.22;10579739;28;19924;-67
2023/05/19 05:55:47;;;;;;;;;;;;;;;9.15;100.00;102595.84;10564332;28;19924;-67
2023/05/19 06:00:50;;;;;;;;;;;;;;;9.24;100.00;102598.25;10538789;28;20371;-67
2023/05/19 06:05:52;;;;;;;;;;;;;;;9.19;100.00;102593.13;10540190;28;19924;-67
2023/05/19 06:10:57;;;;;;;;;;;;;;;9.62;100.00;102589.50;10540916;28;19931;-67
2023/05/19 06:15:59;;;;;;;;;;;;;;;9.55;100.00;102587.94;10577087;28;21028;-67
2023/05/19 06:21:03;;;;;;;;;;;;;;;9.92;100.00;102578.28;10497463;28;19978;-67
2023/05/19 06:26:05;;;;;;;;;;;;;;;9.99;98.21;102579.84;10499414;28;20359;-67
2023/05/19 06:31:07;;;;;;;;;;;;;;;10.37;94.14;102586.69;10529499;28;19931;-67
2023/05/19 06:36:10;;;;;;;;;;;;;;;10.57;94.21;102588.75;10527653;28;19928;-67
2023/05/19 06:41:13;;;;;;;;;;;;;;;10.87;92.54;102585.25;10572522;28;20386;-68
2023/05/19 06:46:16;;;;;;;;;;;;;;;10.76;94.92;102582.97;10512500;28;19963;-67
2023/05/19 06:51:20;;;;;;;;;;;;;;;10.90;94.08;102580.78;10546090;28;19967;-67
2023/05/19 06:56:23;;;;;;;;;;;;;;;11.31;91.59;102578.66;10550427;28;20641;-67
2023/05/19 07:01:26;;;;;;;;;;;;;;;11.33;89.72;102584.69;10558656;28;20301;-67
2023/05/19 07:06:30;;;;;;;;;;;;;;;11.26;86.53;102585.81;10557105;28;20366;-67
2023/05/19 07:11:32;;;;;;;;;;;;;;;11.89;82.60;102578.44;10587310;28;19967;-67
2023/05/19 07:16:34;;;;;;;;;;;;;;;12.99;78.82;102575.34;10570043;28;19924;-67
2023/05/19 07:21:37;;;;;;;;;;;;;;;13.24;75.05;102581.41;10552910;28;20370;-67
2023/05/19 07:26:39;;;;;;;;;;;;;;;14.25;74.23;102573.63;10544798;28;19935;-67
2023/05/19 07:31:42;;;;;;;;;;;;;;;14.11;73.38;102575.09;10543232;28;19924;-68
2023/05/19 07:36:44;;;;;;;;;;;;;;;13.94;74.95;102575.00;10549284;28;19977;-67
2023/05/19 07:41:51;;;;;;;;;;;;;;;14.52;72.12;102570.69;10586445;28;20393;-71
2023/05/19 07:46:53;;;;;;;;;;;;;;;15.07;71.63;102572.53;10568823;28;19924;-69
2023/05/19 07:51:56;;;;;;;;;;;;;;;15.21;69.29;102573.59;10573628;28;19924;-69
2023/05/19 07:56:58;;;;;;;;;;;;;;;15.20;68.96;102577.16;10552881;28;19930;-69
2023/05/19 08:02:00;;;;;;;;;;;;;;;15.71;66.80;102571.97;10585993;28;19930;-69
2023/05/19 08:07:03;;;;;;;;;;;;;;;16.26;67.17;102564.81;10585064;28;19924;-68
2023/05/19 08:12:05;;;;;;;;;;;;;;;16.41;65.33;102556.03;10583255;28;19924;-69
2023/05/19 08:17:07;;;;;;;;;;;;;;;17.09;64.53;102554.94;10551856;28;19924;-68
2023/05/19 08:22:10;;;;;;;;;;;;;;;16.97;62.43;102563.59;10542555;28;20268;-69
2023/05/19 08:27:12;;;;;;;;;;;;;;;18.08;59.21;102544.72;10541932;28;19931;-69
2023/05/19 08:32:14;;;;;;;;;;;;;;;18.13;57.93;102539.13;10542747;28;19930;-69
2023/05/19 08:37:16;;;;;;;;;;;;;;;17.99;57.69;102529.38;10524671;28;19924;-69
2023/05/19 08:42:19;;;;;;;;;;;;;;;17.49;59.15;102525.31;10570744;28;19931;-69
2023/05/19 08:47:21;;;;;;;;;;;;;;;18.60;57.72;102522.03;10565275;28;20286;-69
2023/05/19 08:52:32;;;;;;;;;;;;;;;18.51;55.61;102506.72;10546813;28;20034;-69
2023/05/19 08:57:34;;;;;;;;;;;;;;;18.36;52.47;102500.59;10522534;28;19924;-69
2023/05/19 09:02:37;;;;;;;;;;;;;;;19.38;53.63;102497.44;10548883;28;19938;-69
2023/05/19 09:07:47;;;;;;;;;;;;;;;19.95;54.42;102488.22;10583078;28;19928;-69
2023/05/19 09:12:50;;;;;;;;;;;;;;;19.46;53.55;102488.97;10577109;28;19942;-69
2023/05/19 09:18:04;;;;;;;;;;;;;;;20.44;50.54;102488.34;10541246;28;19924;-70
2023/05/19 09:23:07;;;;;;;;;;;;;;;19.69;49.85;102482.06;10521972;28;20002;-70
2023/05/19 09:28:09;;;;;;;;;;;;;;;18.78;49.23;102476.66;10522041;28;19935;-69
2023/05/19 09:33:15;;;;;;;;;;;;;;;19.01;49.32;102462.75;10523094;28;19924;-69
2023/05/19 09:38:18;;;;;;;;;;;;;;;19.56;48.60;102465.28;10522685;28;19970;-70
2023/05/19 09:43:20;;;;;;;;;;;;;;;20.44;44.12;102469.72;10521722;28;19935;-67
2023/05/19 09:48:24;;;;;;;;;;;;;;;21.22;45.32;102458.59;10560505;28;19931;-68
2023/05/19 09:53:27;;;;;;;;;;;;;;;21.37;45.75;102453.91;10521668;28;19924;-67
2023/05/19 09:58:36;;;;;;;;;;;;;;;21.91;43.90;102452.38;10521814;28;20375;-67
2023/05/19 10:03:38;;;;;;;;;;;;;;;20.57;46.74;102462.53;10548377;28;20010;-68
2023/05/19 10:08:42;;;;;;;;;;;;;;;19.23;45.59;102453.34;10529213;28;19935;-68
2023/05/19 10:13:45;;;;;;;;;;;;;;;19.34;46.41;102455.28;10545347;28;19924;-68
2023/05/19 10:18:47;;;;;;;;;;;;;;;20.60;50.14;102459.66;10529119;28;20298;-68
2023/05/19 10:23:50;;;;;;;;;;;;;;;21.86;44.21;102444.72;10547970;28;20019;-69
2023/05/19 10:28:52;;;;;;;;;;;;;;;23.32;43.00;102429.19;10543060;28;20299;-68
2023/05/19 10:34:13;;;;;;;;;;;;;;;21.36;42.46;102430.03;10514570;28;20283;-70
2023/05/19 10:39:26;;;;;;;;;;;;;;;23.05;44.24;102419.03;10555320;28;20018;-69
2023/05/19 10:44:47;;;;;;;;;;;;;;;23.29;41.64;102412.59;10546557;28;19930;-68
2023/05/19 10:49:53;;;;;;;;;;;;;;;22.69;41.55;102422.97;10546732;28;19928;-68
2023/05/19 10:54:57;;;;;;;;;;;;;;;23.63;42.81;102410.47;10527117;28;19931;-68
2023/05/19 11:00:09;;;;;;;;;;;;;;;21.23;43.04;102411.47;10554624;28;19924;-67
2023/05/19 11:05:17;;;;;;;;;;;;;;;23.24;42.84;102404.97;10564643;28;19931;-67
2023/05/19 11:10:22;;;;;;;;;;;;;;;22.42;42.29;102402.94;10527674;28;19970;-67
2023/05/19 11:15:26;;;;;;;;;;;;;;;24.07;39.90;102408.41;10527736;28;19924;-67
2023/05/19 11:20:29;;;;;;;;;;;;;;;22.58;40.08;102402.53;10527979;28;19967;-67
2023/05/19 11:25:58;;;;;;;;;;;;;;;23.82;40.38;102403.53;10545578;28;19924;-67
2023/05/19 11:31:01;;;;;;;;;;;;;;;25.50;38.76;102397.03;10525049;28;19928;-67
2023/05/19 11:36:03;;;;;;;;;;;;;;;23.88;39.23;102394.97;10517509;28;19931;-66
2023/05/19 11:41:05;;;;;;;;;;;;;;;21.58;43.23;102392.75;10563218;28;19924;-66
2023/05/19 11:46:08;;;;;;;;;;;;;;;24.21;39.93;102393.78;10568684;28;20441;-67
2023/05/19 11:51:10;;;;;;;;;;;;;;;22.88;40.42;102392.91;10585915;28;19935;-67
2023/05/19 11:56:13;;;;;;;;;;;;;;;22.79;40.03;102390.03;10568505;28;19924;-67
2023/05/19 12:01:16;;;;;;;;;;;;;;;22.88;41.91;102382.22;10585544;28;19946;-67
2023/05/19 12:06:18;;;;;;;;;;;;;;;23.01;40.19;102380.19;10585510;28;19998;-67
2023/05/19 12:11:21;;;;;;;;;;;;;;;22.68;41.88;102376.75;10567118;28;19934;-67
2023/05/19 12:16:31;;;;;;;;;;;;;;;24.07;37.91;102376.31;10585726;28;19924;-67
2023/05/19 12:21:34;;;;;;;;;;;;;;;22.76;42.35;102376.09;10585456;28;19969;-68
2023/05/19 12:26:36;;;;;;;;;;;;;;;22.46;39.72;102369.72;10567253;28;19949;-68
2023/05/19 12:31:39;;;;;;;;;;;;;;;24.72;39.51;102359.69;10585148;28;19924;-67
2023/05/19 12:36:41;;;;;;;;;;;;;;;24.95;37.12;102356.66;10585057;28;19992;-65
2023/05/19 12:41:44;;;;;;;;;;;;;;;25.93;38.16;102355.25;10584045;28;19946;-67
2023/05/19 12:46:46;;;;;;;;;;;;;;;26.16;35.89;102351.31;10584562;28;19930;-67
2023/05/19 12:51:52;;;;;;;;;;;;;;;23.33;41.50;102360.56;10565574;28;19930;-67
2023/05/19 12:56:54;;;;;;;;;;;;;;;23.03;41.08;102353.34;10583538;28;20433;-67
2023/05/19 13:01:57;;;;;;;;;;;;;;;25.08;37.66;102342.97;10565244;28;20370;-67
2023/05/19 13:06:59;;;;;;;;;;;;;;;24.66;37.99;102330.81;10583842;28;19924;-67
2023/05/19 13:12:01;;;;;;;;;;;;;;;24.99;37.54;102334.81;10582749;28;20385;-67
2023/05/19 13:17:04;;;;;;;;;;;;;;;24.71;36.19;102322.34;10583491;28;19924;-67
2023/05/19 13:22:07;;;;;;;;;;;;;;;23.85;37.94;102326.56;10582547;28;19924;-67
2023/05/19 13:27:09;;;;;;;;;;;;;;;25.52;37.76;102316.41;10583195;28;19959;-67
2023/05/19 13:32:11;;;;;;;;;;;;;;;26.34;36.70;102311.88;10548120;28;19932;-66
2023/05/19 13:37:13;;;;;;;;;;;;;;;24.77;36.03;102298.50;10539701;28;19999;-66
2023/05/19 13:42:16;;;;;;;;;;;;;;;25.70;36.19;102300.34;10540573;28;19931;-66
2023/05/19 13:47:18;;;;;;;;;;;;;;;25.86;36.39;102300.53;10522785;28;20010;-66
2023/05/19 13:52:21;;;;;;;;;;;;;;;25.38;36.49;102293.63;10539814;28;19935;-66
2023/05/19 13:57:25;;;;;;;;;;;;;;;24.18;37.11;102299.56;10540275;28;19924;-66
2023/05/19 14:02:28;;;;;;;;;;;;;;;26.14;36.42;102285.22;10540069;28;19924;-66
2023/05/19 14:07:33;;;;;;;;;;;;;;;26.01;36.93;102290.13;10539959;28;19928;-66
2023/05/19 14:12:35;;;;;;;;;;;;;;;26.33;35.43;102278.00;10540079;28;20015;-67
2023/05/19 14:17:53;;;;;;;;;;;;;;;25.17;35.01;102280.47;10547282;28;20022;-67
2023/05/19 14:22:55;;;;;;;;;;;;;;;26.75;33.62;102271.91;10582042;28;19924;-67
2023/05/19 14:27:57;;;;;;;;;;;;;;;24.75;34.30;102276.38;10552659;28;19924;-67
2023/05/19 14:33:00;;;;;;;;;;;;;;;24.97;35.72;102274.34;10521654;28;20092;-66
2023/05/19 14:38:02;;;;;;;;;;;;;;;24.72;33.78;102274.00;10538912;28;20333;-67
2023/05/19 14:43:04;;;;;;;;;;;;;;;25.70;37.55;102276.22;10562780;28;19924;-66
2023/05/19 14:48:07;;;;;;;;;;;;;;;24.34;37.65;102262.34;10557355;28;19930;-66
2023/05/19 14:53:09;;;;;;;;;;;;;;;24.88;35.01;102264.50;10528265;28;19930;-67
2023/05/19 14:58:12;;;;;;;;;;;;;;;24.34;38.00;102266.84;10545944;28;20294;-66
2023/05/19 15:03:29;;;;;;;;;;;;;;;23.49;38.25;102267.38;10556527;28;20382;-66
2023/05/19 15:08:31;;;;;;;;;;;;;;;23.22;37.66;102261.78;10587720;28;20393;-66
2023/05/19 15:13:33;;;;;;;;;;;;;;;24.34;36.03;102254.31;10588257;28;19923;-66
2023/05/19 15:18:36;;;;;;;;;;;;;;;25.09;34.47;102245.53;10565652;28;19931;-67
2023/05/19 15:23:38;;;;;;;;;;;;;;;24.92;35.45;102244.47;10575726;28;19931;-67
2023/05/19 15:28:41;;;;;;;;;;;;;;;24.29;34.79;102244.06;10564899;28;20397;-67
2023/05/19 15:33:43;;;;;;;;;;;;;;;24.29;35.70;102245.88;10545421;28;20006;-66
2023/05/19 15:38:45;;;;;;;;;;;;;;;24.14;36.94;102247.31;10545204;28;19932;-67
2023/05/19 15:43:47;;;;;;;;;;;;;;;24.66;35.01;102237.94;10543355;28;19924;-67
2023/05/19 15:48:50;;;;;;;;;;;;;;;24.44;36.28;102236.44;10535504;28;19931;-67
2023/05/19 15:53:52;;;;;;;;;;;;;;;23.16;35.44;102236.47;10543180;28;20371;-67
2023/05/19 15:58:55;;;;;;;;;;;;;;;24.70;36.45;102227.78;10541041;28;20397;-67
2023/05/19 16:03:57;;;;;;;;;;;;;;;24.33;36.64;102220.53;10579438;28;19923;-67
2023/05/19 16:08:59;;;;;;;;;;;;;;;23.62;36.73;102234.16;10585639;28;19923;-66
2023/05/19 16:14:02;;;;;;;;;;;;;;;23.14;39.39;102227.75;10580211;28;20385;-67
2023/05/19 16:19:04;;;;;;;;;;;;;;;23.83;38.16;102218.88;10585698;28;20014;-67
2023/05/19 16:24:07;;;;;;;;;;;;;;;23.65;37.51;102220.53;10546128;28;20394;-67
2023/05/19 16:29:09;;;;;;;;;;;;;;;22.61;40.90;102221.63;10541965;28;19975;-67
2023/05/19 16:34:11;;;;;;;;;;;;;;;22.39;40.03;102217.28;10539815;28;19927;-67
2023/05/19 16:39:14;;;;;;;;;;;;;;;22.69;37.56;102220.94;10584176;28;20266;-66
2023/05/19 16:44:17;;;;;;;;;;;;;;;23.25;38.14;102216.09;10584072;28;19924;-66
2023/05/19 16:49:19;;;;;;;;;;;;;;;22.95;39.05;102210.66;10563266;28;19924;-67
2023/05/19 16:54:22;;;;;;;;;;;;;;;22.19;38.33;102210.94;10542073;28;19928;-67
2023/05/19 16:59:26;;;;;;;;;;;;;;;21.40;39.20;102211.22;10540170;28;20218;-67
2023/05/19 17:04:28;;;;;;;;;;;;;;;21.64;39.98;102204.91;10541766;28;19924;-66
2023/05/19 17:09:31;;;;;;;;;;;;;;;22.20;39.34;102204.59;10539394;28;19928;-67
2023/05/19 17:14:34;;;;;;;;;;;;;;;21.66;40.37;102216.25;10578495;28;20400;-66
2023/05/19 17:19:37;;;;;;;;;;;;;;;21.84;41.70;102230.75;10562525;28;19931;-67
2023/05/19 17:24:40;;;;;;;;;;;;;;;21.59;39.81;102212.41;10546311;22;19947;-67
2023/05/19 17:29:42;;;;;;;;;;;;;;;21.17;40.82;102217.56;10540368;28;20587;-66
2023/05/19 17:34:44;;;;;;;;;;;;;;;20.94;41.78;102217.56;10520336;28;19931;-67
2023/05/19 17:39:46;;;;;;;;;;;;;;;20.39;43.45;102222.69;10540188;28;19931;-66
2023/05/19 17:44:48;;;;;;;;;;;;;;;19.80;45.31;102216.47;10540699;28;19924;-67
2023/05/19 17:49:51;;;;;;;;;;;;;;;19.51;46.77;102218.56;10539502;28;19924;-66
2023/05/19 17:54:54;;;;;;;;;;;;;;;19.74;46.13;102216.88;10520930;28;19958;-66
2023/05/19 17:59:57;;;;;;;;;;;;;;;19.37;45.57;102222.22;10539766;28;19924;-66
2023/05/19 18:04:59;;;;;;;;;;;;;;;19.45;46.93;102219.00;10539672;28;20019;-66
2023/05/19 18:10:02;;;;;;;;;;;;;;;19.49;46.73;102233.75;10520349;28;20388;-66
2023/05/19 18:15:04;;;;;;;;;;;;;;;18.96;47.00;102219.88;10495485;28;19924;-66
2023/05/19 18:20:07;;;;;;;;;;;;;;;18.88;48.50;102226.56;10497818;28;19924;-66
2023/05/19 18:25:09;;;;;;;;;;;;;;;18.84;47.67;102230.38;10525909;28;19963;-66
2023/05/19 18:30:11;;;;;;;;;;;;;;;18.60;49.09;102230.25;10509644;28;19972;-66
2023/05/19 18:35:14;;;;;;;;;;;;;;;18.63;48.83;102231.84;10533993;28;19924;-66
2023/05/19 18:40:16;;;;;;;;;;;;;;;18.28;51.19;102237.75;10544981;28;19946;-66
2023/05/19 18:45:18;;;;;;;;;;;;;;;18.14;51.50;102239.53;10545084;28;20013;-66
2023/05/19 18:50:20;;;;;;;;;;;;;;;17.73;53.08;102247.50;10537729;28;19946;-66
2023/05/19 18:55:23;;;;;;;;;;;;;;;17.49;55.74;102242.84;10521282;28;19934;-66
2023/05/19 19:00:26;;;;;;;;;;;;;;;17.23;55.91;102258.59;10524480;28;20007;-66
2023/05/19 19:05:29;;;;;;;;;;;;;;;17.16;55.34;102257.25;10545245;28;19924;-66
2023/05/19 19:10:33;;;;;;;;;;;;;;;16.77;56.91;102264.00;10546075;28;19924;-66
2023/05/19 19:15:36;;;;;;;;;;;;;;;16.75;56.94;102263.25;10545040;28;20360;-66
2023/05/19 19:20:38;;;;;;;;;;;;;;;16.61;58.06;102264.09;10544788;28;19931;-66
2023/05/19 19:25:40;;;;;;;;;;;;;;;16.13;59.25;102276.59;10575022;28;19946;-66
2023/05/19 19:30:43;;;;;;;;;;;;;;;15.96;58.54;102282.84;10587727;28;19927;-66
2023/05/19 19:35:45;;;;;;;;;;;;;;;15.59;60.23;102292.78;10582400;28;20370;-66
2023/05/19 19:40:49;;;;;;;;;;;;;;;15.47;61.81;102301.38;10580562;28;19924;-66
2023/05/19 19:45:59;;;;;;;;;;;;;;;15.30;61.82;102297.84;10584699;28;19924;-66
2023/05/19 19:51:01;;;;;;;;;;;;;;;14.97;62.78;102311.88;10542263;28;19924;-66
2023/05/19 19:56:04;;;;;;;;;;;;;;;14.73;63.25;102308.72;10553247;28;19923;-66
2023/05/19 20:01:07;;;;;;;;;;;;;;;14.72;63.41;102312.28;10586274;28;19924;-66
2023/05/19 20:06:09;;;;;;;;;;;;;;;14.63;63.59;102318.88;10584795;28;19930;-66
2023/05/19 20:11:11;;;;;;;;;;;;;;;14.20;65.61;102320.09;10583691;28;19931;-67
2023/05/19 20:16:13;;;;;;;;;;;;;;;14.10;66.43;102317.06;10581854;28;19946;-66
2023/05/19 20:21:16;;;;;;;;;;;;;;;14.30;67.00;102321.38;10582389;28;20285;-66
2023/05/19 20:26:19;;;;;;;;;;;;;;;14.04;67.57;102320.84;10579708;28;19939;-66
2023/05/19 20:31:23;;;;;;;;;;;;;;;13.97;67.70;102316.81;10582379;28;19930;-66
2023/05/19 20:36:26;;;;;;;;;;;;;;;13.87;66.93;102326.91;10583907;28;19962;-66
2023/05/19 20:41:28;;;;;;;;;;;;;;;13.76;67.52;102318.66;10583682;28;19931;-66
2023/05/19 20:46:30;;;;;;;;;;;;;;;13.81;68.01;102323.72;10582994;28;20393;-66
2023/05/19 20:51:33;;;;;;;;;;;;;;;13.48;68.30;102329.59;10584404;28;19958;-66
2023/05/19 20:56:35;;;;;;;;;;;;;;;13.57;68.95;102323.94;10582634;28;20274;-66
2023/05/19 21:01:37;;;;;;;;;;;;;;;13.38;69.90;102331.78;10584075;28;19931;-66
2023/05/19 21:06:39;;;;;;;;;;;;;;;13.44;69.28;102334.16;10583094;28;20387;-66
2023/05/19 21:11:42;;;;;;;;;;;;;;;13.36;69.15;102328.38;10582209;28;19978;-66
2023/05/19 21:16:48;;;;;;;;;;;;;;;13.29;69.65;102329.53;10581005;28;20381;-67
2023/05/19 21:21:50;;;;;;;;;;;;;;;13.15;71.33;102336.25;10564828;28;20386;-66
2023/05/19 21:26:52;;;;;;;;;;;;;;;12.97;71.35;102337.06;10582610;28;19955;-66
2023/05/19 21:31:55;;;;;;;;;;;;;;;12.90;70.76;102344.34;10581836;28;20366;-66
2023/05/19 21:36:57;;;;;;;;;;;;;;;12.85;71.19;102342.84;10579844;28;19930;-66
2023/05/19 21:41:59;;;;;;;;;;;;;;;12.64;71.46;102351.56;10582285;28;20081;-66
2023/05/19 21:47:01;;;;;;;;;;;;;;;12.56;70.57;102344.94;10582555;28;19931;-66
2023/05/19 21:52:05;;;;;;;;;;;;;;;12.77;70.72;102353.69;10580062;28;20022;-66
2023/05/19 21:57:09;;;;;;;;;;;;;;;13.12;68.47;102359.22;10586059;28;19930;-66
2023/05/19 22:02:12;;;;;;;;;;;;;;;13.31;66.31;102354.00;10590655;28;19924;-66
2023/05/19 22:07:14;;;;;;;;;;;;;;;13.30;67.65;102353.16;10571288;28;19946;-67
2023/05/19 22:12:16;;;;;;;;;;;;;;;13.46;65.38;102352.50;10588913;28;20298;-66
2023/05/19 22:17:19;;;;;;;;;;;;;;;13.56;66.53;102354.63;10589994;28;19928;-66
2023/05/19 22:22:21;;;;;;;;;;;;;;;13.55;67.09;102349.47;10589581;28;19924;-66
2023/05/19 22:27:23;;;;;;;;;;;;;;;13.46;66.82;102357.75;10589075;28;20292;-66
2023/05/19 22:32:26;;;;;;;;;;;;;;;13.51;67.79;102358.41;10588564;28;19923;-66
2023/05/19 22:37:28;;;;;;;;;;;;;;;13.29;68.11;102356.69;10588706;28;19978;-66
2023/05/19 22:42:30;;;;;;;;;;;;;;;13.42;69.06;102354.41;10587057;28;19930;-66
2023/05/19 22:47:32;;;;;;;;;;;;;;;13.42;69.71;102357.06;10589409;28;19928;-67
2023/05/19 22:52:35;;;;;;;;;;;;;;;12.95;71.07;102355.53;10588125;28;19923;-67
2023/05/19 22:57:38;;;;;;;;;;;;;;;13.32;70.90;102355.75;10588367;28;19924;-66
2023/05/19 23:02:40;;;;;;;;;;;;;;;12.97;71.59;102355.47;10570797;28;19924;-67
2023/05/19 23:07:42;;;;;;;;;;;;;;;13.24;72.71;102355.19;10568161;28;20377;-66
2023/05/19 23:12:45;;;;;;;;;;;;;;;13.08;72.70;102358.50;10587187;28;19930;-66
2023/05/19 23:17:47;;;;;;;;;;;;;;;13.05;73.06;102340.22;10588254;28;20006;-66
2023/05/19 23:22:49;;;;;;;;;;;;;;;13.15;72.78;102348.56;10587767;28;19924;-66
2023/05/19 23:27:52;;;;;;;;;;;;;;;12.89;74.29;102342.63;10586503;28;19923;-66
2023/05/19 23:32:54;;;;;;;;;;;;;;;13.00;73.82;102350.94;10585360;28;19923;-66
2023/05/19 23:37:57;;;;;;;;;;;;;;;13.02;73.92;102346.44;10587440;28;19931;-66
2023/05/19 23:42:59;;;;;;;;;;;;;;;12.98;74.93;102355.41;10586575;28;20279;-66
2023/05/19 23:48:01;;;;;;;;;;;;;;;12.91;73.93;102351.34;10585431;28;19924;-66
2023/05/19 23:53:03;;;;;;;;;;;;;;;12.96;74.32;102346.75;10568107;28;19947;-67
2023/05/19 23:58:06;;;;;;;;;;;;;;;12.62;75.74;102337.66;10585937;28;19924;-66
